Time;durP1;ratioP1;P1;durP2;ratioP2;P2;SDS_P1;SDS_P2;PMS_P1;PMS_P2;Temp;Humidity;BMP_temperature;BMP_pressure;BME280_temperature;BME280_humidity;BME280_pressure;Samples;Min_cycle;Max_cycle;Signal;HPM_P1;HPM_P2
2022/01/04 00:02:06;;;;;;;5.50;2.50;;;;;;;7.21;94.58;98124.92;105090;1271;61380;-72
2022/01/04 00:04:33;;;;;;;2.90;2.50;;;;;;;7.20;94.59;98124.70;105072;1271;61263;-73
2022/01/04 00:07:00;;;;;;;3.00;2.00;;;;;;;7.20;94.83;98122.05;105111;1271;76085;-73
2022/01/04 00:09:26;;;;;;;4.90;2.00;;;;;;;7.20;94.82;98119.06;105132;1271;70253;-73
2022/01/04 00:14:19;;;;;;;4.80;2.20;;;;;;;7.19;94.93;98115.59;105076;1271;61259;-73
2022/01/04 00:16:46;;;;;;;3.90;2.30;;;;;;;7.18;94.98;98116.52;105115;1271;61403;-73
2022/01/04 00:19:12;;;;;;;4.00;2.00;;;;;;;7.16;95.12;98113.80;105096;1271;76005;-73
2022/01/04 00:21:40;;;;;;;4.50;2.00;;;;;;;7.16;95.15;98114.01;105096;1271;69494;-73
2022/01/04 00:24:07;;;;;;;3.70;2.20;;;;;;;7.16;95.16;98113.66;105190;1271;73336;-74
2022/01/04 00:26:34;;;;;;;4.90;2.00;;;;;;;7.16;95.20;98110.13;105072;1271;61281;-74
2022/01/04 00:29:01;;;;;;;4.80;1.90;;;;;;;7.16;95.26;98109.23;105125;1271;61276;-73
2022/01/04 00:31:28;;;;;;;4.40;1.70;;;;;;;7.16;95.22;98103.95;105094;1271;75186;-73
2022/01/04 00:33:54;;;;;;;2.80;1.50;;;;;;;7.14;95.35;98103.20;105112;1271;68517;-73
2022/01/04 00:36:21;;;;;;;4.60;1.90;;;;;;;7.13;95.50;98102.94;105097;1271;61384;-74
2022/01/04 00:38:47;;;;;;;3.80;2.00;;;;;;;7.11;95.60;98106.92;105132;1271;61358;-74
2022/01/04 00:41:14;;;;;;;4.50;1.70;;;;;;;7.10;95.76;98101.73;105125;1271;61364;-73
2022/01/04 00:43:44;;;;;;;3.30;1.50;;;;;;;7.09;95.97;98099.98;105129;1271;75300;-73
2022/01/04 00:46:16;;;;;;;3.00;1.40;;;;;;;7.06;96.27;98094.91;105098;1271;68935;-73
2022/01/04 00:51:30;;;;;;;2.40;1.30;;;;;;;6.98;96.97;98085.89;105045;1271;61354;-74
2022/01/04 00:53:57;;;;;;;2.60;1.50;;;;;;;6.94;97.29;98087.40;105125;1271;62022;-74
2022/01/04 00:56:23;;;;;;;2.00;1.30;;;;;;;6.90;97.64;98087.81;105108;1270;76376;-74
2022/01/04 00:58:50;;;;;;;2.60;1.20;;;;;;;6.85;97.90;98091.70;105066;1271;68562;-72
2022/01/04 01:01:17;;;;;;;3.10;1.50;;;;;;;6.80;98.13;98088.30;105113;1271;73853;-73
2022/01/04 01:03:44;;;;;;;4.00;1.70;;;;;;;6.76;98.31;98090.02;105102;1271;61374;-72
2022/01/04 01:06:10;;;;;;;4.20;1.50;;;;;;;6.71;98.80;98092.26;105088;1271;61194;-74
2022/01/04 01:08:37;;;;;;;3.60;2.10;;;;;;;6.67;99.13;98093.08;104930;1271;239139;-72
2022/01/04 01:11:06;;;;;;;3.50;1.80;;;;;;;6.63;99.55;98096.30;105002;1271;69188;-73
2022/01/04 01:13:33;;;;;;;3.60;2.70;;;;;;;6.59;99.72;98093.92;105085;1271;71855;-73
2022/01/04 01:16:00;;;;;;;2.60;1.70;;;;;;;6.55;99.98;98094.16;105063;1271;61400;-72
2022/01/04 01:18:27;;;;;;;2.00;1.60;;;;;;;6.51;100.00;98085.80;104875;1271;61873;-73
2022/01/04 01:20:53;;;;;;;2.00;1.70;;;;;;;6.46;100.00;98080.50;104936;1271;76352;-73
2022/01/04 01:23:21;;;;;;;3.40;1.90;;;;;;;6.42;100.00;98076.52;105090;1271;69715;-71
2022/01/04 01:25:49;;;;;;;2.50;1.60;;;;;;;6.39;100.00;98075.14;105199;1271;74134;-73
2022/01/04 01:28:17;;;;;;;5.00;2.10;;;;;;;6.37;100.00;98069.61;105229;1271;61415;-72
2022/01/04 01:30:45;;;;;;;3.00;1.80;;;;;;;6.33;100.00;98065.08;105017;1271;61304;-73
2022/01/04 01:33:12;;;;;;;2.50;1.40;;;;;;;6.29;100.00;98060.04;105165;1271;73280;-72
2022/01/04 01:35:39;;;;;;;4.70;1.50;;;;;;;6.27;100.00;98060.04;105133;1271;70362;-71
2022/01/04 01:38:08;;;;;;;1.70;1.40;;;;;;;6.24;100.00;98063.90;105144;1271;73940;-73
2022/01/04 01:40:36;;;;;;;3.40;1.80;;;;;;;6.21;100.00;98062.90;104964;1271;61327;-72
2022/01/04 01:43:04;;;;;;;4.50;2.10;;;;;;;6.19;100.00;98055.42;105239;1271;61419;-74
2022/01/04 01:45:31;;;;;;;4.80;2.20;;;;;;;6.19;100.00;98054.00;105219;1271;76151;-72
2022/01/04 01:47:58;;;;;;;3.30;2.50;;;;;;;6.18;100.00;98054.25;105129;1271;69312;-73
2022/01/04 01:50:26;;;;;;;4.20;2.60;;;;;;;6.18;100.00;98049.88;105140;1271;72859;-73
2022/01/04 01:52:54;;;;;;;3.50;3.00;;;;;;;6.17;100.00;98047.45;105086;1271;61348;-73
2022/01/04 01:55:23;;;;;;;5.10;3.00;;;;;;;6.18;100.00;98037.70;105210;1271;61285;-72
2022/01/04 01:57:51;;;;;;;4.20;3.10;;;;;;;6.19;100.00;98033.75;105095;1271;75010;-72
2022/01/04 02:00:22;;;;;;;5.20;2.90;;;;;;;6.19;100.00;98033.89;105232;1271;69364;-71
2022/01/04 02:02:48;;;;;;;;;;;;;;;6.20;100.00;98031.04;105128;1271;74330;-72
2022/01/04 02:05:15;;;;;;;6.80;4.40;;;;;;;6.21;100.00;98027.25;105084;1271;61279;-72
2022/01/04 02:07:43;;;;;;;6.80;5.30;;;;;;;6.23;100.00;98023.97;105126;1271;61243;-72
2022/01/04 02:10:10;;;;;;;8.80;5.80;;;;;;;6.25;100.00;98018.00;105100;1271;76190;-72
2022/01/04 02:12:47;;;;;;;8.00;5.20;;;;;;;6.27;100.00;98012.04;105111;1271;68616;-72
2022/01/04 02:15:18;;;;;;;8.40;4.60;;;;;;;6.29;100.00;98008.56;105164;1271;75106;-72
2022/01/04 02:17:45;;;;;;;7.70;5.30;;;;;;;6.28;100.00;97992.73;105204;1271;61350;-73
2022/01/04 02:20:13;;;;;;;9.30;6.30;;;;;;;6.32;100.00;97988.39;105043;1271;61325;-73
2022/01/04 02:22:40;;;;;;;8.50;5.40;;;;;;;6.32;100.00;97984.37;105056;1271;76354;-72
2022/01/04 02:25:09;;;;;;;6.90;5.20;;;;;;;6.31;100.00;97980.20;105135;1271;69066;-72
2022/01/04 02:27:38;;;;;;;8.10;5.50;;;;;;;6.32;100.00;97976.80;105067;1271;72665;-74
2022/01/04 02:30:11;;;;;;;6.80;5.20;;;;;;;6.34;100.00;97981.37;105348;1271;61222;-72
2022/01/04 02:32:37;;;;;;;6.30;5.60;;;;;;;6.34;100.00;97979.09;105156;1271;61266;-72
2022/01/04 02:35:05;;;;;;;7.40;6.00;;;;;;;6.32;100.00;97980.10;105066;1271;61281;-72
2022/01/04 02:37:33;;;;;;;8.00;6.30;;;;;;;6.29;100.00;97977.84;105158;1271;69468;-72
2022/01/04 02:40:00;;;;;;;9.70;6.90;;;;;;;6.28;100.00;97978.63;104607;1271;71738;-72
2022/01/04 02:42:27;;;;;;;8.40;6.40;;;;;;;6.27;100.00;97975.67;105091;1271;61287;-73
2022/01/04 02:44:54;;;;;;;7.70;6.40;;;;;;;6.29;100.00;97966.38;105127;1271;62087;-73
2022/01/04 02:47:21;;;;;;;7.40;5.40;;;;;;;6.27;100.00;97969.35;105276;1271;75852;-73
2022/01/04 02:49:48;;;;;;;5.80;5.20;;;;;;;6.27;100.00;97967.60;105143;1271;69740;-73
2022/01/04 02:52:14;;;;;;;8.00;5.60;;;;;;;6.31;100.00;97957.24;105085;1271;73288;-72
2022/01/04 02:54:41;;;;;;;6.50;5.40;;;;;;;6.36;100.00;97951.64;105137;1271;61259;-72
2022/01/04 02:57:08;;;;;;;11.60;10.60;;;;;;;6.36;100.00;97945.08;105130;1271;61742;-72
2022/01/04 02:59:35;;;;;;;10.70;9.80;;;;;;;6.36;100.00;97940.34;104901;1271;75349;-72
2022/01/04 03:02:02;;;;;;;9.70;8.80;;;;;;;6.40;100.00;97944.71;105115;1271;69264;-72
2022/01/04 03:04:29;;;;;;;10.30;8.80;;;;;;;6.38;100.00;97937.71;105089;1270;74389;-72
2022/01/04 03:06:57;;;;;;;10.90;9.70;;;;;;;6.38;100.00;97935.08;105126;1271;61333;-72
2022/01/04 03:09:23;;;;;;;11.20;9.30;;;;;;;6.39;100.00;97935.54;105342;1271;61880;-73
2022/01/04 03:11:50;;;;;;;9.70;7.70;;;;;;;6.37;100.00;97931.47;105864;1271;74304;-72
2022/01/04 03:14:17;;;;;;;8.80;7.30;;;;;;;6.34;100.00;97920.34;105943;1271;69680;-73
2022/01/04 03:16:43;;;;;;;8.80;7.80;;;;;;;6.33;100.00;97918.46;105484;1269;73400;-72
2022/01/04 03:19:10;;;;;;;8.40;7.30;;;;;;;6.32;100.00;97916.25;105113;1271;61282;-71
2022/01/04 03:21:39;;;;;;;7.60;6.70;;;;;;;6.32;100.00;97904.41;105122;1271;61143;-72
2022/01/04 03:24:07;;;;;;;9.20;7.90;;;;;;;6.30;100.00;97907.20;105182;1271;75134;-72
2022/01/04 03:26:34;;;;;;;10.60;9.40;;;;;;;6.25;100.00;97907.57;105032;1271;70226;-73
2022/01/04 03:29:02;;;;;;;10.30;8.90;;;;;;;6.18;100.00;97909.27;105145;1271;73452;-72
2022/01/04 03:31:29;;;;;;;8.60;7.80;;;;;;;6.17;100.00;97896.67;105246;1271;61298;-72
2022/01/04 03:33:56;;;;;;;9.90;8.00;;;;;;;6.19;100.00;97890.17;105143;1270;61310;-72
2022/01/04 03:36:24;;;;;;;8.30;7.60;;;;;;;6.18;100.00;97885.64;104933;1271;76153;-72
2022/01/04 03:38:53;;;;;;;10.30;7.30;;;;;;;6.17;100.00;97877.94;105133;1271;69281;-72
2022/01/04 03:41:21;;;;;;;7.80;6.60;;;;;;;6.20;100.00;97868.42;105105;1271;74130;-72
2022/01/04 03:43:50;;;;;;;7.30;6.60;;;;;;;6.24;100.00;97865.17;105161;1271;61308;-72
2022/01/04 03:46:17;;;;;;;7.40;6.70;;;;;;;6.23;100.00;97862.20;105241;1271;61361;-72
2022/01/04 03:48:45;;;;;;;11.00;7.80;;;;;;;6.20;100.00;97860.12;105185;1271;75499;-72
2022/01/04 03:51:11;;;;;;;9.90;7.50;;;;;;;6.17;100.00;97854.83;105134;1271;69273;-71
2022/01/04 03:53:38;;;;;;;9.30;8.00;;;;;;;6.15;100.00;97849.66;105154;1271;74150;-72
2022/01/04 03:56:05;;;;;;;8.20;7.40;;;;;;;6.13;100.00;97849.46;105148;1270;61252;-73
2022/01/04 03:58:32;;;;;;;8.50;7.20;;;;;;;6.10;100.00;97842.23;105010;1271;61469;-70
2022/01/04 04:01:01;;;;;;;9.00;7.00;;;;;;;6.07;100.00;97842.09;105222;1271;76622;-72
2022/01/04 04:03:28;;;;;;;8.70;7.00;;;;;;;6.05;100.00;97841.71;105356;1271;68683;-72
2022/01/04 04:05:55;;;;;;;8.40;7.60;;;;;;;6.02;100.00;97836.07;105181;1271;72140;-73
2022/01/04 04:08:21;;;;;;;9.20;8.00;;;;;;;6.02;100.00;97833.66;105057;1271;61244;-72
2022/01/04 04:10:49;;;;;;;8.00;7.20;;;;;;;6.00;100.00;97833.95;105366;1271;61816;-72
2022/01/04 04:13:15;;;;;;;8.90;8.00;;;;;;;5.97;100.00;97830.46;105430;1271;76171;-73
2022/01/04 04:15:43;;;;;;;8.90;8.20;;;;;;;5.96;100.00;97832.81;105565;1268;69224;-72
2022/01/04 04:18:11;;;;;;;7.60;6.90;;;;;;;5.94;100.00;97832.58;105657;1271;73414;-73
2022/01/04 04:20:38;;;;;;;8.30;7.50;;;;;;;5.89;100.00;97829.37;106952;1270;61248;-72
2022/01/04 04:23:07;;;;;;;8.80;8.00;;;;;;;5.86;100.00;97830.61;108460;1271;61200;-72
2022/01/04 04:25:34;;;;;;;8.20;7.50;;;;;;;5.86;100.00;97834.88;108510;1271;75267;-72
2022/01/04 04:28:01;;;;;;;8.00;7.30;;;;;;;5.86;100.00;97841.72;108283;1271;70295;-72
2022/01/04 04:30:28;;;;;;;8.20;7.40;;;;;;;5.84;100.00;97839.77;106574;1271;73376;-73
2022/01/04 04:32:54;;;;;;;9.10;8.20;;;;;;;5.81;100.00;97833.05;105195;1271;61173;-73
2022/01/04 04:35:22;;;;;;;13.90;9.40;;;;;;;5.81;100.00;97832.14;105169;1271;61189;-73
2022/01/04 04:37:49;;;;;;;11.90;10.80;;;;;;;5.81;100.00;97820.73;105151;1271;75322;-74
2022/01/04 04:40:15;;;;;;;13.10;11.90;;;;;;;5.83;100.00;97820.73;105022;1271;69203;-73
2022/01/04 04:42:42;;;;;;;10.40;9.40;;;;;;;5.82;100.00;97814.87;105120;1271;72864;-73
2022/01/04 04:45:09;;;;;;;12.80;10.50;;;;;;;5.74;100.00;97813.40;105151;1270;61415;-73
2022/01/04 04:47:37;;;;;;;14.90;13.40;;;;;;;5.73;100.00;97808.73;105150;1271;61403;-74
2022/01/04 04:50:04;;;;;;;15.70;14.20;;;;;;;5.75;100.00;97801.55;105115;1271;76368;-74
2022/01/04 04:52:31;;;;;;;17.80;16.20;;;;;;;5.78;100.00;97801.74;104936;1271;70481;-72
2022/01/04 04:54:58;;;;;;;22.60;20.40;;;;;;;5.79;100.00;97801.99;105085;1271;73542;-71
2022/01/04 04:57:25;;;;;;;24.00;21.40;;;;;;;5.79;100.00;97798.13;105089;1271;61397;-73
2022/01/04 04:59:52;;;;;;;20.50;18.60;;;;;;;5.76;100.00;97800.79;105018;1271;61639;-73
2022/01/04 05:02:19;;;;;;;20.00;18.20;;;;;;;5.73;100.00;97799.52;105090;1271;75302;-72
2022/01/04 05:04:45;;;;;;;20.50;18.40;;;;;;;5.75;100.00;97792.98;105100;1271;70134;-73
2022/01/04 05:07:12;;;;;;;18.90;17.00;;;;;;;5.75;100.00;97787.13;105115;1271;73698;-72
2022/01/04 05:09:39;;;;;;;15.40;14.10;;;;;;;5.76;100.00;97788.46;105118;1271;61414;-73
2022/01/04 05:12:07;;;;;;;16.10;14.60;;;;;;;5.76;100.00;97783.36;105261;1271;61394;-72
2022/01/04 05:14:34;;;;;;;16.70;14.90;;;;;;;5.77;100.00;97781.70;105335;1271;76475;-72
2022/01/04 05:17:00;;;;;;;19.00;17.10;;;;;;;5.77;100.00;97780.96;104979;1271;70357;-73
2022/01/04 05:19:27;;;;;;;19.70;17.50;;;;;;;5.80;100.00;97779.21;105099;1271;73485;-72
2022/01/04 05:21:53;;;;;;;20.60;17.80;;;;;;;5.81;100.00;97780.33;105105;1271;61431;-73
2022/01/04 05:24:20;;;;;;;20.80;17.80;;;;;;;5.82;100.00;97779.05;105107;1271;61969;-73
2022/01/04 05:26:47;;;;;;;22.60;18.20;;;;;;;5.82;100.00;97773.27;105125;1271;75955;-73
2022/01/04 05:29:13;;;;;;;22.50;18.40;;;;;;;5.83;100.00;97774.22;104947;1271;67572;-72
2022/01/04 05:31:40;;;;;;;20.40;18.10;;;;;;;5.86;100.00;97770.89;105112;1271;71434;-72
2022/01/04 05:34:06;;;;;;;23.40;18.20;;;;;;;5.86;100.00;97767.11;105133;1271;61270;-73
2022/01/04 05:36:33;;;;;;;25.20;19.60;;;;;;;5.87;100.00;97765.30;105046;1271;61862;-73
2022/01/04 05:39:00;;;;;;;25.20;21.40;;;;;;;5.88;100.00;97759.06;105119;1271;75757;-73
2022/01/04 05:41:27;;;;;;;31.90;25.30;;;;;;;5.91;100.00;97759.80;105034;1271;68568;-73
2022/01/04 05:43:53;;;;;;;34.80;26.80;;;;;;;5.92;100.00;97758.11;104910;1271;74667;-73
2022/01/04 05:46:20;;;;;;;31.20;26.70;;;;;;;5.95;100.00;97754.92;105117;1271;61271;-72
2022/01/04 05:48:47;;;;;;;32.40;25.00;;;;;;;5.97;100.00;97749.17;105112;1270;62024;-73
2022/01/04 05:51:14;;;;;;;33.10;26.70;;;;;;;5.97;100.00;97746.51;105119;1271;76536;-73
2022/01/04 05:53:40;;;;;;;30.40;25.80;;;;;;;5.98;100.00;97738.36;105119;1271;70128;-73
2022/01/04 05:56:07;;;;;;;31.60;25.20;;;;;;;5.99;100.00;97736.54;105089;1271;72317;-71
2022/01/04 05:58:34;;;;;;;31.30;24.50;;;;;;;5.99;100.00;97731.39;104981;1271;61185;-73
2022/01/04 06:01:01;;;;;;;29.10;23.10;;;;;;;6.00;100.00;97725.70;105109;1271;61389;-72
2022/01/04 06:03:27;;;;;;;25.40;20.70;;;;;;;6.00;100.00;97724.60;105110;1271;76307;-73
2022/01/04 06:05:55;;;;;;;27.50;22.10;;;;;;;6.01;100.00;97722.48;105171;1271;69426;-73
2022/01/04 06:08:22;;;;;;;27.10;21.60;;;;;;;6.02;100.00;97718.54;105118;1271;73187;-73
2022/01/04 06:10:51;;;;;;;28.40;20.60;;;;;;;6.03;100.00;97715.95;105126;1271;61290;-72
2022/01/04 06:16:03;;;;;;;25.20;19.00;;;;;;;6.06;100.00;97715.42;105117;1271;76348;-72
2022/01/04 06:18:30;;;;;;;28.30;19.70;;;;;;;6.07;100.00;97715.00;105142;1269;69070;-73
2022/01/04 06:20:57;;;;;;;26.70;18.90;;;;;;;6.09;100.00;97717.50;104918;1271;74391;-69
2022/01/04 06:23:24;;;;;;;24.40;17.40;;;;;;;6.10;100.00;97717.21;105118;1271;61248;-72
2022/01/04 06:25:53;;;;;;;23.70;17.30;;;;;;;6.12;100.00;97716.90;105096;1271;62057;-72
2022/01/04 06:28:20;;;;;;;23.70;16.70;;;;;;;6.13;100.00;97715.27;105116;1271;76158;-72
2022/01/04 06:30:50;;;;;;;24.70;17.60;;;;;;;6.14;100.00;97708.34;105227;1271;68658;-73
2022/01/04 06:33:21;;;;;;;27.80;19.30;;;;;;;6.15;100.00;97704.56;105140;1271;74171;-72
2022/01/04 06:35:49;;;;;;;28.20;20.10;;;;;;;6.17;100.00;97696.52;104996;1271;61491;-72
2022/01/04 06:38:16;;;;;;;25.50;20.00;;;;;;;6.18;100.00;97688.69;104957;1271;61317;-72
2022/01/04 06:40:43;;;;;;;22.90;17.90;;;;;;;6.18;100.00;97689.36;105496;1271;76186;-73
2022/01/04 06:43:10;;;;;;;24.30;18.20;;;;;;;6.19;100.00;97687.56;105094;1271;70170;-72
2022/01/04 06:45:37;;;;;;;27.80;18.70;;;;;;;6.21;100.00;97686.02;105161;1271;74290;-73
2022/01/04 06:48:04;;;;;;;21.00;15.60;;;;;;;6.23;100.00;97684.61;105190;1271;61318;-72
2022/01/04 06:50:31;;;;;;;18.50;14.50;;;;;;;6.25;100.00;97684.30;105134;1271;61702;-72
2022/01/04 06:52:58;;;;;;;17.50;13.00;;;;;;;6.26;100.00;97688.08;105147;1271;75354;-73
2022/01/04 06:55:26;;;;;;;19.20;13.80;;;;;;;6.28;100.00;97685.34;105104;1271;70670;-71
2022/01/04 06:57:52;;;;;;;16.70;12.50;;;;;;;6.30;100.00;97681.84;105156;1271;73428;-72
2022/01/04 07:00:19;;;;;;;15.80;13.00;;;;;;;6.32;100.00;97675.35;105144;1271;61356;-72
2022/01/04 07:02:46;;;;;;;19.60;14.50;;;;;;;6.35;100.00;97675.08;105155;1271;61259;-73
2022/01/04 07:05:13;;;;;;;12.10;10.70;;;;;;;6.39;100.00;97672.00;105092;1271;75190;-72
2022/01/04 07:07:39;;;;;;;13.20;11.00;;;;;;;6.45;100.00;97670.51;105082;1270;70382;-72
2022/01/04 07:10:06;;;;;;;19.10;15.50;;;;;;;6.49;100.00;97666.67;105070;1271;73859;-72
2022/01/04 07:12:33;;;;;;;21.10;15.20;;;;;;;6.51;100.00;97662.63;105103;1271;61260;-73
2022/01/04 07:14:59;;;;;;;23.20;17.10;;;;;;;6.54;100.00;97660.86;104971;1271;62599;-73
2022/01/04 07:17:26;;;;;;;23.10;17.60;;;;;;;6.56;100.00;97657.73;105153;1270;75122;-73
2022/01/04 07:19:53;;;;;;;22.80;18.10;;;;;;;6.57;100.00;97649.52;105015;1271;70715;-73
2022/01/04 07:22:19;;;;;;;25.20;18.70;;;;;;;6.59;100.00;97644.61;104964;1271;73795;-73
2022/01/04 07:24:46;;;;;;;23.10;17.90;;;;;;;6.59;100.00;97640.88;104898;1271;61324;-73
2022/01/04 07:27:13;;;;;;;24.60;17.60;;;;;;;6.60;100.00;97629.71;104969;1271;61298;-73
2022/01/04 07:29:39;;;;;;;22.00;16.90;;;;;;;6.64;100.00;97622.42;105153;1271;74349;-72
2022/01/04 07:32:06;;;;;;;21.20;18.30;;;;;;;6.66;100.00;97622.96;105107;1271;70396;-74
2022/01/04 07:34:32;;;;;;;20.80;17.50;;;;;;;6.68;100.00;97621.60;105135;1271;74182;-72
2022/01/04 07:36:59;;;;;;;21.40;16.30;;;;;;;6.69;100.00;97622.18;105085;1271;61236;-73
2022/01/04 07:39:26;;;;;;;23.10;17.10;;;;;;;6.71;100.00;97618.65;105158;1271;61336;-73
2022/01/04 07:41:54;;;;;;;21.10;17.20;;;;;;;6.78;100.00;97618.22;105087;1271;75211;-73
2022/01/04 07:44:20;;;;;;;25.90;20.70;;;;;;;6.84;100.00;97609.81;105087;1270;69697;-72
2022/01/04 07:46:47;;;;;;;30.20;23.90;;;;;;;6.90;100.00;97604.23;105080;1271;73358;-72
2022/01/04 07:49:15;;;;;;;33.00;24.50;;;;;;;6.94;100.00;97598.95;105139;1271;61304;-73
2022/01/04 07:51:42;;;;;;;31.90;23.00;;;;;;;7.00;100.00;97597.85;105117;1271;62155;-71
2022/01/04 07:54:09;;;;;;;25.80;17.90;;;;;;;7.04;100.00;97600.55;105122;1271;76538;-76
2022/01/04 07:56:35;;;;;;;24.80;15.70;;;;;;;7.05;100.00;97602.20;105138;1271;68776;-73
2022/01/04 07:59:03;;;;;;;20.50;15.80;;;;;;;7.09;100.00;97598.21;105158;1271;73226;-73
2022/01/04 08:01:30;;;;;;;21.60;16.30;;;;;;;7.13;100.00;97591.39;105200;1271;61230;-72
2022/01/04 08:03:57;;;;;;;19.70;14.30;;;;;;;7.19;100.00;97579.95;105030;1271;61205;-74
2022/01/04 08:06:24;;;;;;;18.10;12.80;;;;;;;7.25;100.00;97574.92;105216;1271;75700;-74
2022/01/04 08:08:51;;;;;;;18.40;13.20;;;;;;;7.31;100.00;97575.02;105311;1271;69704;-72
2022/01/04 08:11:19;;;;;;;17.60;12.90;;;;;;;7.37;100.00;97567.67;105244;1271;74425;-73
2022/01/04 08:13:45;;;;;;;17.90;13.90;;;;;;;7.41;100.00;97571.20;105330;1271;61364;-73
2022/01/04 08:16:15;;;;;;;17.80;13.70;;;;;;;7.46;100.00;97561.68;105183;1271;61314;-72
2022/01/04 08:18:45;;;;;;;18.80;14.40;;;;;;;7.49;100.00;97554.01;104949;1271;75861;-72
2022/01/04 08:21:11;;;;;;;;;;;;;;;7.53;100.00;97541.89;104976;1271;68755;-72
2022/01/04 08:23:38;;;;;;;22.30;18.30;;;;;;;7.56;100.00;97532.44;105168;1271;61294;-73
2022/01/04 08:26:05;;;;;;;25.50;19.50;;;;;;;7.55;100.00;97528.27;104946;1271;61395;-74
2022/01/04 08:28:32;;;;;;;23.60;19.40;;;;;;;7.54;100.00;97519.86;104966;1272;61446;-73
2022/01/04 08:30:58;;;;;;;18.60;16.30;;;;;;;7.55;100.00;97518.55;105141;1271;76097;-73
2022/01/04 08:33:25;;;;;;;19.20;13.70;;;;;;;7.59;100.00;97516.48;105126;1271;68755;-73
2022/01/04 08:35:51;;;;;;;15.80;14.00;;;;;;;7.64;100.00;97511.16;105099;1271;74275;-72
2022/01/04 08:38:18;;;;;;;16.90;12.60;;;;;;;7.68;100.00;97503.20;105105;1271;61306;-73
2022/01/04 08:40:45;;;;;;;19.00;13.20;;;;;;;7.73;100.00;97498.98;105189;1271;61296;-72
2022/01/04 08:43:11;;;;;;;16.80;12.10;;;;;;;7.76;100.00;97492.73;105068;1271;75404;-74
2022/01/04 08:45:38;;;;;;;17.30;11.90;;;;;;;7.77;100.00;97487.70;105116;1271;69095;-73
2022/01/04 08:48:05;;;;;;;15.80;12.20;;;;;;;7.76;100.00;97482.27;105145;1271;73375;-72
2022/01/04 08:50:32;;;;;;;18.80;12.30;;;;;;;7.77;100.00;97478.30;104969;1271;61459;-73
2022/01/04 08:52:58;;;;;;;15.10;9.80;;;;;;;7.77;100.00;97475.45;104948;1271;61362;-73
2022/01/04 08:55:25;;;;;;;13.90;9.00;;;;;;;7.78;100.00;97463.04;105176;1271;76252;-73
2022/01/04 08:57:52;;;;;;;11.90;8.10;;;;;;;7.79;100.00;97463.83;105090;1271;68784;-74
2022/01/04 09:00:19;;;;;;;13.00;7.70;;;;;;;7.78;100.00;97462.79;105119;1271;72879;-71
2022/01/04 09:02:46;;;;;;;10.40;7.60;;;;;;;7.79;100.00;97458.30;105084;1271;61348;-73
2022/01/04 09:05:13;;;;;;;12.50;8.20;;;;;;;7.82;100.00;97454.73;105124;1271;61316;-73
2022/01/04 09:07:40;;;;;;;14.00;8.90;;;;;;;7.85;100.00;97445.10;104928;1271;76574;-72
2022/01/04 09:10:07;;;;;;;14.40;8.70;;;;;;;7.89;100.00;97438.11;105156;1270;69657;-73
2022/01/04 09:12:53;;;;;;;13.40;9.30;;;;;;;7.91;100.00;97430.43;105141;1271;74479;-72
2022/01/04 09:20:55;;;;;;;12.90;8.00;;;;;;;8.04;100.00;97411.36;105169;1271;75089;-73
2022/01/04 09:23:23;;;;;;;12.80;8.60;;;;;;;8.09;100.00;97414.17;105136;1271;68702;-72
2022/01/04 09:25:52;;;;;;;13.00;7.30;;;;;;;8.15;100.00;97403.55;105158;1269;73383;-73
2022/01/04 09:28:21;;;;;;;10.90;7.30;;;;;;;8.22;100.00;97395.03;104940;1271;61350;-73
2022/01/04 09:30:52;;;;;;;11.60;8.00;;;;;;;8.28;100.00;97386.35;105275;1271;62035;-73
2022/01/04 09:33:20;;;;;;;13.10;8.10;;;;;;;8.35;100.00;97376.59;105202;1268;76363;-73
2022/01/04 09:35:49;;;;;;;13.00;9.40;;;;;;;8.43;100.00;97374.75;104975;1271;68545;-73
2022/01/04 09:38:17;;;;;;;15.60;9.50;;;;;;;8.48;100.00;97368.10;105096;1271;74550;-72
2022/01/04 09:40:45;;;;;;;12.80;8.40;;;;;;;8.52;100.00;97365.16;105241;1271;61390;-73
2022/01/04 09:43:12;;;;;;;12.30;7.80;;;;;;;8.56;100.00;97352.02;105303;1271;61206;-72
2022/01/04 09:45:39;;;;;;;11.30;6.60;;;;;;;8.60;100.00;97342.69;105144;1271;73895;-73
2022/01/04 09:48:07;;;;;;;9.20;6.20;;;;;;;8.65;100.00;97333.63;105040;1271;68735;-73
2022/01/04 09:50:37;;;;;;;8.10;5.40;;;;;;;8.70;100.00;97333.10;105165;1268;73575;-74
2022/01/04 09:53:07;;;;;;;6.10;4.40;;;;;;;8.76;100.00;97323.42;105315;1271;61219;-69
2022/01/04 09:55:35;;;;;;;7.20;4.60;;;;;;;8.80;100.00;97319.71;105271;1271;61327;-70
2022/01/04 09:58:02;;;;;;;6.10;3.80;;;;;;;8.84;100.00;97319.38;104809;1271;76193;-72
2022/01/04 10:00:29;;;;;;;4.40;3.30;;;;;;;8.87;100.00;97308.46;105052;1271;70543;-75
2022/01/04 10:03:22;;;;;;;4.00;2.90;;;;;;;8.89;100.00;97299.43;105282;1271;73138;-75
2022/01/04 10:05:58;;;;;;;4.50;3.30;;;;;;;8.90;100.00;97298.80;105322;1270;61299;-74
2022/01/04 10:08:25;;;;;;;4.20;3.50;;;;;;;8.95;100.00;97296.48;105230;1271;61303;-74
2022/01/04 10:11:01;;;;;;;5.80;4.40;;;;;;;8.99;100.00;97290.40;105170;1271;74568;-77
2022/01/04 10:13:31;;;;;;;6.00;4.90;;;;;;;9.03;100.00;97284.98;105121;1271;70484;-76
2022/01/04 10:15:59;;;;;;;5.10;3.60;;;;;;;9.04;100.00;97280.31;105123;1271;72788;-73
2022/01/04 10:18:28;;;;;;;6.00;4.40;;;;;;;9.06;100.00;97280.60;105122;1271;61452;-74
2022/01/04 10:21:04;;;;;;;5.40;4.50;;;;;;;9.10;100.00;97275.09;105223;1271;61380;-74
2022/01/04 10:23:31;;;;;;;6.10;4.20;;;;;;;9.12;100.00;97273.89;105222;1271;74966;-75
2022/01/04 10:26:04;;;;;;;4.10;3.70;;;;;;;9.14;100.00;97278.13;105184;1271;69385;-74
2022/01/04 10:28:39;;;;;;;6.10;4.60;;;;;;;9.17;100.00;97279.30;105406;1270;73505;-72
2022/01/04 10:31:12;;;;;;;7.30;4.20;;;;;;;9.18;100.00;97277.75;105261;1271;61320;-74
2022/01/04 10:33:39;;;;;;;4.30;3.30;;;;;;;9.21;100.00;97274.28;105122;1271;61281;-74
2022/01/04 10:36:11;;;;;;;4.70;3.30;;;;;;;9.28;100.00;97257.90;105186;1271;75129;-73
2022/01/04 10:38:48;;;;;;;5.50;4.80;;;;;;;9.35;100.00;97259.02;105197;1271;70479;-72
2022/01/04 10:41:25;;;;;;;6.40;4.30;;;;;;;9.44;100.00;97251.54;105031;1271;73138;-74
2022/01/04 10:44:07;;;;;;;7.10;5.30;;;;;;;9.50;100.00;97251.02;105238;1271;61190;-73
2022/01/04 10:46:42;;;;;;;5.90;4.30;;;;;;;9.58;100.00;97242.67;105225;1271;62113;-75
2022/01/04 10:49:17;;;;;;;8.10;5.30;;;;;;;9.62;100.00;97239.57;105183;1271;75821;-75
2022/01/04 10:51:47;;;;;;;8.30;5.00;;;;;;;9.66;100.00;97236.77;105050;1271;70284;-73
2022/01/04 10:54:19;;;;;;;7.10;4.20;;;;;;;9.69;100.00;97236.29;105248;1271;73161;-71
2022/01/04 10:56:46;;;;;;;8.80;4.40;;;;;;;9.68;100.00;97229.63;105207;1271;61301;-78
2022/01/04 10:59:14;;;;;;;5.60;3.80;;;;;;;9.69;100.00;97232.73;105066;1271;61308;-73
2022/01/04 11:01:45;;;;;;;6.90;5.00;;;;;;;9.67;100.00;97234.64;105145;1271;75296;-72
2022/01/04 11:04:16;;;;;;;7.80;4.90;;;;;;;9.68;100.00;97233.69;104984;1271;67783;-74
2022/01/04 11:06:44;;;;;;;8.10;6.00;;;;;;;9.68;100.00;97232.48;104926;1271;73434;-72
2022/01/04 11:09:11;;;;;;;7.50;4.90;;;;;;;9.69;100.00;97227.59;105123;1271;61425;-72
2022/01/04 11:11:39;;;;;;;11.10;6.20;;;;;;;9.68;100.00;97232.41;105125;1271;61160;-72
2022/01/04 11:14:08;;;;;;;9.50;6.00;;;;;;;9.68;100.00;97230.83;105150;1271;73435;-74
2022/01/04 11:16:35;;;;;;;9.30;5.60;;;;;;;9.71;100.00;97229.94;105171;1271;68774;-73
2022/01/04 11:19:03;;;;;;;6.40;5.10;;;;;;;9.71;100.00;97226.54;105125;1271;72613;-74
2022/01/04 11:21:33;;;;;;;7.50;4.90;;;;;;;9.70;100.00;97218.52;105136;1271;61296;-73
2022/01/04 11:24:02;;;;;;;7.90;4.70;;;;;;;9.68;100.00;97221.15;105194;1271;61284;-73
2022/01/04 11:26:29;;;;;;;8.90;6.10;;;;;;;9.64;100.00;97212.41;105116;1271;76578;-75
2022/01/04 11:28:56;;;;;;;9.10;5.60;;;;;;;9.64;100.00;97214.60;105139;1271;69443;-73
2022/01/04 11:31:45;;;;;;;8.30;5.40;;;;;;;9.63;100.00;97208.13;105096;1271;73289;-73
2022/01/04 11:34:31;;;;;;;8.60;6.20;;;;;;;9.60;100.00;97196.88;105235;1271;61474;-75
2022/01/04 11:36:58;;;;;;;8.60;6.20;;;;;;;9.55;100.00;97197.13;105172;1271;61304;-74